createdAt,value
2018-07-11T00:01:33.368Z,8.93
2018-07-11T00:04:03.332Z,7.80
2018-07-11T00:06:32.591Z,8.63
2018-07-11T00:09:01.760Z,8.63
2018-07-11T00:11:30.827Z,9.77
2018-07-11T00:13:59.883Z,9.33
2018-07-11T00:16:28.960Z,9.33
2018-07-11T00:18:58.021Z,9.67
2018-07-11T00:21:27.144Z,9.17
2018-07-11T00:23:56.247Z,8.60
2018-07-11T00:26:26.286Z,8.10
2018-07-11T00:28:55.395Z,10.30
2018-07-11T00:31:24.480Z,10.10
2018-07-11T00:33:53.606Z,9.63
2018-07-11T00:36:22.674Z,12.33
2018-07-11T00:38:51.806Z,8.70
2018-07-11T00:41:20.947Z,9.90
2018-07-11T00:43:50.079Z,11.77
2018-07-11T00:46:19.454Z,10.07
2018-07-11T00:48:49.006Z,9.93
2018-07-11T00:51:18.409Z,10.33
2018-07-11T00:53:48.498Z,10.27
2018-07-11T00:56:17.669Z,11.57
2018-07-11T00:59:54.379Z,10.03
2018-07-11T01:02:23.641Z,14.27
2018-07-11T01:04:52.741Z,9.43
2018-07-11T01:07:21.885Z,12.23
2018-07-11T01:09:51.411Z,10.60
2018-07-11T01:12:20.643Z,11.33
2018-07-11T01:14:49.744Z,10.20
2018-07-11T01:17:24.271Z,10.33
2018-07-11T01:19:53.487Z,10.07
2018-07-11T01:22:22.584Z,9.70
2018-07-11T01:24:51.688Z,12.10
2018-07-11T01:27:20.775Z,11.07
2018-07-11T01:29:49.892Z,10.83
2018-07-11T01:32:19.004Z,9.67
2018-07-11T01:34:48.127Z,10.10
2018-07-11T01:37:17.352Z,13.03
2018-07-11T01:39:46.487Z,11.40
2018-07-11T01:42:15.561Z,10.23
2018-07-11T01:44:44.694Z,12.80
2018-07-11T01:47:13.796Z,10.30
2018-07-11T01:49:42.916Z,10.50
2018-07-11T01:52:23.554Z,10.17
2018-07-11T01:54:52.679Z,10.50
2018-07-11T01:57:21.904Z,9.43
2018-07-11T01:59:51.065Z,9.63
2018-07-11T02:02:20.176Z,11.43
2018-07-11T02:04:49.265Z,11.47
2018-07-11T02:07:18.327Z,9.37
2018-07-11T02:09:47.427Z,9.23
2018-07-11T02:12:16.223Z,8.57
2018-07-11T02:14:49.412Z,9.40
2018-07-11T02:17:18.596Z,11.33
2018-07-11T02:19:47.724Z,11.40
2018-07-11T02:22:16.831Z,11.93
2018-07-11T02:24:45.931Z,9.60
2018-07-11T02:27:15.054Z,10.00
2018-07-11T02:29:44.160Z,11.57
2018-07-11T02:32:13.856Z,13.40
2018-07-11T02:34:43.001Z,10.90
2018-07-11T02:37:12.109Z,10.50
2018-07-11T02:39:41.182Z,14.40
2018-07-11T02:42:10.298Z,11.43
2018-07-11T02:44:39.375Z,9.67
2018-07-11T02:48:11.477Z,9.33
2018-07-11T02:50:40.576Z,11.13
2018-07-11T02:53:09.675Z,10.37
2018-07-11T02:55:38.747Z,9.73
2018-07-11T02:58:07.824Z,11.20
2018-07-11T03:00:37.001Z,12.00
2018-07-11T03:03:06.136Z,8.50
2018-07-11T03:05:35.213Z,8.93
2018-07-11T03:08:04.296Z,10.30
2018-07-11T03:10:33.383Z,10.60
2018-07-11T03:13:02.436Z,11.43
2018-07-11T03:15:31.497Z,9.47
2018-07-11T03:18:00.682Z,11.90
2018-07-11T03:20:29.789Z,10.63
2018-07-11T03:22:58.895Z,9.17
2018-07-11T03:25:27.996Z,11.63
2018-07-11T03:27:57.068Z,11.10
2018-07-11T03:30:26.224Z,11.43
2018-07-11T03:32:55.324Z,13.10
2018-07-11T03:35:24.406Z,9.93
2018-07-11T03:37:53.491Z,10.60
2018-07-11T03:40:22.648Z,11.20
2018-07-11T03:42:51.747Z,11.73
2018-07-11T03:45:20.887Z,9.97
2018-07-11T03:47:49.940Z,13.40
2018-07-11T03:50:18.767Z,11.30
2018-07-11T03:52:47.829Z,10.47
2018-07-11T03:55:16.915Z,10.30
2018-07-11T03:57:45.959Z,9.80
2018-07-11T04:00:15.032Z,10.97
2018-07-11T04:02:44.100Z,10.97
2018-07-11T04:05:13.160Z,10.97
2018-07-11T04:07:42.295Z,10.40
2018-07-11T04:10:11.384Z,11.97
2018-07-11T04:12:40.467Z,11.80
2018-07-11T04:15:09.596Z,11.00
2018-07-11T04:17:38.698Z,10.40
2018-07-11T04:20:07.772Z,10.80
2018-07-11T04:22:36.867Z,12.40
2018-07-11T04:25:05.975Z,9.80
2018-07-11T04:27:35.100Z,10.83
2018-07-11T04:30:04.164Z,10.53
2018-07-11T04:32:33.349Z,11.77
2018-07-11T04:35:02.408Z,11.10
2018-07-11T04:37:31.519Z,9.60
2018-07-11T04:40:00.708Z,11.13
2018-07-11T04:42:29.531Z,11.10
2018-07-11T04:44:58.497Z,12.10
2018-07-11T04:47:27.631Z,12.03
2018-07-11T04:49:57.109Z,11.50
2018-07-11T04:52:26.371Z,10.93
2018-07-11T04:54:55.499Z,11.17
2018-07-11T04:57:24.617Z,12.33
2018-07-11T04:59:53.691Z,11.70
2018-07-11T05:02:22.957Z,10.67
2018-07-11T05:04:52.126Z,12.17
2018-07-11T05:07:21.245Z,11.67
2018-07-11T05:09:50.387Z,13.60
2018-07-11T05:12:19.475Z,15.20
2018-07-11T05:14:48.586Z,13.33
2018-07-11T05:17:17.735Z,12.90
2018-07-11T05:19:46.829Z,12.17
2018-07-11T05:22:16.002Z,12.70
2018-07-11T05:24:45.070Z,13.73
2018-07-11T05:27:14.160Z,13.30
2018-07-11T05:29:42.983Z,12.50
2018-07-11T05:32:11.960Z,11.80
2018-07-11T05:34:41.067Z,11.40
2018-07-11T05:37:10.148Z,16.63
2018-07-11T05:39:39.231Z,14.00
2018-07-11T05:42:08.055Z,12.87
2018-07-11T05:44:37.072Z,13.93
2018-07-11T05:47:07.150Z,12.10
2018-07-11T05:49:36.338Z,14.00
2018-07-11T05:52:05.502Z,13.93
2018-07-11T05:54:35.039Z,15.30
2018-07-11T05:57:04.119Z,13.50
2018-07-11T05:59:33.259Z,15.57
2018-07-11T06:02:02.327Z,12.73
2018-07-11T06:04:31.417Z,14.50
2018-07-11T06:07:00.513Z,15.87
2018-07-11T06:09:29.605Z,13.23
2018-07-11T06:11:58.707Z,14.37
2018-07-11T06:14:27.809Z,13.87
2018-07-11T06:16:57.401Z,13.83
2018-07-11T06:19:26.500Z,16.27
2018-07-11T06:21:55.308Z,13.73
2018-07-11T06:24:24.256Z,16.47
2018-07-11T06:26:53.704Z,14.97
2018-07-11T06:29:22.514Z,16.23
2018-07-11T06:31:51.568Z,15.77
2018-07-11T06:34:20.649Z,15.17
2018-07-11T06:36:49.733Z,14.70
2018-07-11T06:39:18.921Z,18.43
2018-07-11T06:41:47.952Z,15.93
2018-07-11T06:44:17.064Z,15.33
2018-07-11T06:46:45.891Z,14.53
2018-07-11T06:49:14.943Z,15.53
2018-07-11T06:51:44.296Z,15.00
2018-07-11T06:54:13.394Z,14.90
2018-07-11T06:56:42.517Z,15.17
2018-07-11T06:59:11.627Z,15.30
2018-07-11T07:01:40.688Z,14.27
2018-07-11T07:04:09.804Z,14.07
2018-07-11T07:06:38.884Z,13.43
2018-07-11T07:09:08.069Z,16.43
2018-07-11T07:11:37.136Z,15.20
2018-07-11T07:14:06.421Z,15.20
2018-07-11T07:16:35.516Z,13.80
2018-07-11T07:19:04.612Z,11.80
2018-07-11T07:21:33.683Z,13.50
2018-07-11T07:24:02.768Z,10.57
2018-07-11T07:26:31.915Z,12.37
2018-07-11T07:29:01.016Z,11.50
2018-07-11T07:31:30.091Z,11.03
2018-07-11T07:33:59.186Z,11.50
2018-07-11T07:36:28.284Z,9.47
2018-07-11T07:38:57.572Z,10.37
2018-07-11T07:41:26.671Z,11.20
2018-07-11T07:43:55.780Z,12.13
2018-07-11T07:46:24.871Z,10.67
2018-07-11T07:48:53.960Z,7.70
2018-07-11T07:51:23.065Z,8.73
2018-07-11T07:53:52.167Z,8.00
2018-07-11T07:56:21.254Z,9.70
2018-07-11T07:58:50.365Z,8.90
2018-07-11T08:01:19.546Z,8.80
2018-07-11T08:03:48.955Z,9.03
2018-07-11T08:06:18.063Z,8.93
2018-07-11T08:08:47.176Z,7.10
2018-07-11T08:11:16.284Z,10.37
2018-07-11T08:13:45.351Z,7.17
2018-07-11T08:16:14.328Z,6.70
2018-07-11T08:18:43.272Z,6.07
2018-07-11T08:21:12.315Z,5.40
2018-07-11T08:23:52.955Z,6.63
2018-07-11T08:26:33.693Z,6.27
2018-07-11T08:30:17.285Z,6.87
2018-07-11T08:33:01.152Z,7.00
2018-07-11T08:36:39.492Z,7.67
2018-07-11T08:41:26.756Z,6.50
2018-07-11T08:44:12.863Z,6.13
2018-07-11T08:46:54.871Z,6.27
2018-07-11T08:49:36.442Z,7.13
2018-07-11T08:54:20.442Z,4.93
2018-07-11T08:58:10.799Z,4.60
2018-07-11T09:02:28.519Z,7.37
2018-07-11T09:05:27.544Z,7.67
2018-07-11T09:09:06.783Z,8.00
2018-07-11T09:12:10.134Z,7.93
2018-07-11T09:15:50.496Z,6.83
2018-07-11T09:21:37.644Z,9.23
2018-07-11T09:24:41.201Z,9.90
2018-07-11T09:27:10.723Z,12.17
2018-07-11T09:29:40.792Z,7.97
2018-07-11T09:32:10.509Z,9.50
2018-07-11T09:34:39.674Z,9.47
2018-07-11T09:37:09.004Z,9.20
2018-07-11T09:39:38.164Z,7.97
2018-07-11T09:42:07.339Z,8.77
2018-07-11T09:44:36.518Z,11.50
2018-07-11T09:47:10.943Z,7.40
2018-07-11T09:49:40.044Z,10.57
2018-07-11T09:52:09.119Z,9.03
2018-07-11T09:54:38.266Z,10.07
2018-07-11T09:57:07.311Z,8.97
2018-07-11T09:59:36.389Z,9.73
2018-07-11T10:02:05.589Z,9.47
2018-07-11T10:04:35.065Z,8.90
2018-07-11T10:07:04.909Z,9.97
2018-07-11T10:09:34.040Z,8.90
2018-07-11T10:12:03.138Z,14.67
2018-07-11T10:14:32.238Z,16.63
2018-07-11T10:17:01.330Z,10.57
2018-07-11T10:19:30.487Z,12.27
2018-07-11T10:21:59.589Z,9.43
2018-07-11T10:24:28.688Z,15.10
2018-07-11T10:26:57.787Z,10.00
2018-07-11T10:29:26.902Z,8.20
2018-07-11T10:31:55.991Z,8.47
2018-07-11T10:34:25.096Z,6.40
2018-07-11T10:36:54.241Z,8.30
2018-07-11T10:39:23.341Z,9.53
2018-07-11T10:41:52.585Z,10.57
2018-07-11T10:44:21.664Z,6.73
2018-07-11T10:46:54.136Z,15.10
2018-07-11T10:49:23.327Z,10.83
2018-07-11T10:51:52.454Z,9.63
2018-07-11T10:54:21.640Z,11.13
2018-07-11T10:56:50.839Z,11.57
2018-07-11T10:59:20.147Z,11.07
2018-07-11T11:01:49.239Z,10.53
2018-07-11T11:04:20.053Z,12.50
2018-07-11T11:06:49.972Z,9.63
2018-07-11T11:09:19.055Z,9.53
2018-07-11T11:11:48.137Z,7.17
2018-07-11T11:14:17.273Z,6.00
2018-07-11T11:16:46.444Z,8.07
2018-07-11T11:19:15.549Z,4.67
2018-07-11T11:21:44.717Z,6.33
2018-07-11T11:24:13.784Z,6.07
2018-07-11T11:26:42.818Z,6.60
2018-07-11T11:29:12.234Z,6.27
2018-07-11T11:31:42.101Z,6.40
2018-07-11T11:34:11.176Z,5.40
2018-07-11T11:36:40.279Z,7.33
2018-07-11T11:39:09.324Z,11.77
2018-07-11T11:41:38.506Z,7.80
2018-07-11T11:44:07.293Z,3.60
2018-07-11T11:46:36.356Z,4.37
2018-07-11T11:49:05.488Z,6.03
2018-07-11T11:51:34.538Z,5.63
2018-07-11T11:57:02.115Z,5.27
2018-07-11T11:59:31.387Z,10.57
2018-07-11T12:02:00.515Z,8.13
2018-07-11T12:04:29.787Z,6.47
2018-07-11T12:06:58.905Z,6.00
2018-07-11T12:09:27.958Z,9.43
2018-07-11T12:12:00.289Z,5.80
2018-07-11T12:14:29.402Z,7.47
2018-07-11T12:16:58.521Z,8.57
2018-07-11T12:19:27.595Z,8.30
2018-07-11T12:21:56.698Z,6.93
2018-07-11T12:24:25.784Z,11.03
2018-07-11T12:26:54.868Z,8.00
2018-07-11T12:29:24.472Z,18.17
2018-07-11T12:31:53.609Z,8.57
2018-07-11T12:34:22.807Z,16.10
2018-07-11T12:36:52.815Z,7.93
2018-07-11T12:39:21.920Z,12.00
2018-07-11T12:41:51.048Z,9.57
2018-07-11T12:44:20.127Z,10.17
2018-07-11T12:46:49.251Z,8.47
2018-07-11T12:52:17.346Z,9.50
2018-07-11T12:54:47.934Z,16.30
2018-07-11T12:57:18.574Z,9.50
2018-07-11T12:59:49.645Z,7.13
2018-07-11T13:02:20.705Z,6.03
2018-07-11T13:04:51.240Z,10.47
2018-07-11T13:07:21.364Z,10.13
2018-07-11T13:09:51.080Z,8.63
2018-07-11T13:12:22.015Z,7.53
2018-07-11T13:14:53.114Z,12.70
2018-07-11T13:17:24.045Z,8.87
2018-07-11T13:19:55.394Z,12.87
2018-07-11T13:22:25.824Z,10.97
2018-07-11T13:24:55.849Z,7.77
2018-07-11T13:27:26.754Z,8.33
2018-07-11T13:29:57.714Z,13.40
2018-07-11T13:32:31.284Z,7.60
2018-07-11T13:35:01.506Z,11.23
2018-07-11T13:37:32.596Z,9.97
2018-07-11T13:40:02.850Z,9.67
2018-07-11T13:42:33.444Z,7.80
2018-07-11T13:45:02.882Z,8.97
2018-07-11T13:47:31.959Z,7.00
2018-07-11T13:50:01.112Z,9.80
2018-07-11T13:52:30.751Z,7.63
2018-07-11T13:54:59.864Z,10.17
2018-07-11T13:57:29.147Z,10.03
2018-07-11T13:59:58.304Z,9.60
2018-07-11T14:02:27.383Z,8.30
2018-07-11T14:04:56.536Z,10.43
2018-07-11T14:07:26.274Z,6.83
2018-07-11T14:09:55.789Z,7.80
2018-07-11T14:12:24.959Z,11.73
2018-07-11T14:14:54.337Z,9.47
2018-07-11T14:17:23.515Z,13.67
2018-07-11T14:19:52.599Z,6.23
2018-07-11T14:22:21.703Z,7.80
2018-07-11T14:24:51.427Z,6.33
2018-07-11T14:27:21.159Z,6.53
2018-07-11T14:29:50.702Z,7.33
2018-07-11T14:32:19.827Z,8.80
2018-07-11T14:34:50.951Z,4.97
2018-07-11T14:37:20.602Z,5.27
2018-07-11T14:39:49.714Z,5.60
2018-07-11T14:42:18.806Z,5.80
2018-07-11T14:44:48.402Z,6.90
2018-07-11T14:47:22.773Z,13.63
2018-07-11T14:49:51.880Z,5.47
2018-07-11T14:52:21.082Z,6.83
2018-07-11T14:54:50.159Z,5.57
2018-07-11T14:57:19.336Z,8.03
2018-07-11T14:59:48.383Z,36.40
2018-07-11T15:02:17.465Z,8.90
2018-07-11T15:04:46.752Z,10.97
2018-07-11T15:07:16.062Z,11.37
2018-07-11T15:09:45.136Z,8.90
2018-07-11T15:12:14.255Z,7.77
2018-07-11T15:14:43.383Z,9.80
2018-07-11T15:17:12.508Z,8.30
2018-07-11T15:19:41.591Z,5.10
2018-07-11T15:22:11.169Z,13.67
2018-07-11T15:24:40.289Z,20.50
2018-07-11T15:27:09.433Z,9.17
2018-07-11T15:29:38.550Z,6.27
2018-07-11T15:32:07.824Z,4.87
2018-07-11T15:34:37.075Z,5.20
2018-07-11T15:37:06.184Z,6.10
2018-07-11T15:39:35.492Z,5.37
2018-07-11T15:42:05.136Z,6.13
2018-07-11T15:44:34.301Z,9.00
2018-07-11T15:47:03.747Z,8.90
2018-07-11T15:49:32.912Z,9.07
2018-07-11T15:52:02.084Z,7.30
2018-07-11T15:54:31.739Z,8.43
2018-07-11T15:57:00.890Z,5.53
2018-07-11T15:59:32.775Z,8.63
2018-07-11T16:02:01.935Z,6.33
2018-07-11T16:04:36.344Z,5.43
2018-07-11T16:07:06.735Z,8.40
2018-07-11T16:10:10.043Z,6.43
2018-07-11T16:12:39.119Z,6.10
2018-07-11T16:15:08.227Z,6.33
2018-07-11T16:17:37.454Z,5.10
2018-07-11T16:20:06.619Z,6.03
2018-07-11T16:22:36.028Z,8.80
2018-07-11T16:25:05.627Z,4.43
2018-07-11T16:27:34.834Z,5.43
2018-07-11T16:30:04.448Z,6.70
2018-07-11T16:32:33.574Z,4.90
2018-07-11T16:35:02.687Z,4.30
2018-07-11T16:37:31.533Z,6.27
2018-07-11T16:40:00.488Z,10.93
2018-07-11T16:42:29.583Z,7.70
2018-07-11T16:44:58.679Z,5.53
2018-07-11T16:47:28.623Z,7.33
2018-07-11T16:49:57.749Z,5.07
2018-07-11T16:52:26.874Z,6.53
2018-07-11T16:54:56.021Z,5.97
2018-07-11T16:57:36.218Z,7.03
2018-07-11T17:00:08.355Z,6.43
2018-07-11T17:02:38.912Z,6.80
2018-07-11T17:05:09.309Z,7.50
2018-07-11T17:07:39.627Z,9.57
2018-07-11T17:10:08.772Z,12.57
2018-07-11T17:12:37.613Z,9.50
2018-07-11T17:15:07.207Z,9.77
2018-07-11T17:17:36.618Z,8.20
2018-07-11T17:20:07.760Z,11.00
2018-07-11T17:22:50.370Z,11.67
2018-07-11T17:25:20.886Z,9.40
2018-07-11T17:27:56.732Z,12.00
2018-07-11T17:30:26.675Z,9.60
2018-07-11T17:32:56.067Z,9.83
2018-07-11T17:35:25.158Z,13.50
2018-07-11T17:37:54.299Z,11.17
2018-07-11T17:40:24.884Z,11.17
2018-07-11T17:42:54.523Z,14.13
2018-07-11T17:45:23.665Z,11.83
2018-07-11T17:47:55.200Z,16.57
2018-07-11T17:50:28.216Z,12.83
2018-07-11T17:53:06.813Z,13.73
2018-07-11T17:55:37.839Z,14.07
2018-07-11T17:58:10.168Z,14.80
2018-07-11T18:00:49.563Z,13.27
2018-07-11T18:03:52.536Z,15.67
2018-07-11T18:06:29.286Z,16.07
2018-07-11T18:09:05.713Z,16.23
2018-07-11T18:11:50.770Z,19.13
2018-07-11T18:14:31.245Z,16.73
2018-07-11T18:17:17.759Z,17.70
2018-07-11T18:20:06.507Z,20.40
2018-07-11T18:22:40.982Z,20.60
2018-07-11T18:26:19.268Z,21.47
2018-07-11T18:28:57.436Z,16.30
2018-07-11T18:32:42.659Z,15.47
2018-07-11T18:35:26.938Z,18.23
2018-07-11T18:38:00.903Z,21.50
2018-07-11T18:40:37.778Z,19.63
2018-07-11T18:43:18.659Z,22.97
2018-07-11T18:45:57.757Z,23.07
2018-07-11T18:50:43.504Z,19.00
2018-07-11T18:53:24.225Z,17.37
2018-07-11T18:56:04.659Z,20.07
2018-07-11T18:58:42.640Z,20.80
2018-07-11T19:02:16.508Z,21.30
2018-07-11T19:05:55.908Z,29.60
2018-07-11T19:09:58.862Z,27.67
2018-07-11T19:12:32.122Z,27.30
2018-07-11T19:15:12.347Z,22.97
2018-07-11T19:18:03.505Z,24.60
2018-07-11T19:20:38.055Z,25.90
2018-07-11T19:23:15.372Z,26.70
2018-07-11T19:25:55.923Z,25.83
2018-07-11T19:28:33.764Z,18.73
2018-07-11T19:31:09.739Z,14.70
2018-07-11T19:33:49.819Z,14.60
2018-07-11T19:37:03.513Z,15.67
2018-07-11T19:39:48.641Z,17.23
2018-07-11T19:43:00.491Z,17.13
2018-07-11T19:49:54.137Z,14.73
2018-07-11T19:52:34.707Z,18.60
2018-07-11T19:56:43.119Z,28.77
2018-07-11T19:59:12.448Z,33.97
2018-07-11T20:01:41.566Z,38.97
2018-07-11T20:04:11.110Z,11.53
2018-07-11T20:06:40.222Z,9.80
2018-07-11T20:09:09.616Z,8.30
2018-07-11T20:11:38.785Z,10.23
2018-07-11T20:14:08.544Z,10.20
2018-07-11T20:16:37.709Z,9.23
2018-07-11T20:19:06.805Z,10.97
2018-07-11T20:21:35.933Z,9.60
2018-07-11T20:24:05.032Z,8.83
2018-07-11T20:26:34.247Z,10.87
2018-07-11T20:29:03.485Z,9.20
2018-07-11T20:31:32.559Z,8.97
2018-07-11T20:34:01.670Z,9.70
2018-07-11T20:36:30.844Z,10.73
2018-07-11T20:39:00.065Z,8.07
2018-07-11T20:41:29.183Z,8.70
2018-07-11T20:43:58.271Z,8.77
2018-07-11T20:46:27.447Z,10.23
2018-07-11T20:48:56.583Z,9.73
2018-07-11T20:51:25.635Z,8.33
2018-07-11T20:53:54.802Z,10.03
2018-07-11T20:56:23.836Z,10.27
2018-07-11T20:59:06.319Z,10.17
2018-07-11T21:01:47.180Z,10.10
2018-07-11T21:05:28.668Z,11.10
2018-07-11T21:08:13.503Z,9.67
2018-07-11T21:11:25.868Z,9.03
2018-07-11T21:19:21.529Z,10.10
2018-07-11T21:21:51.655Z,10.60
2018-07-11T21:24:20.735Z,12.60
2018-07-11T21:26:49.830Z,13.07
2018-07-11T21:29:19.252Z,16.10
2018-07-11T21:31:48.310Z,14.90
2018-07-11T21:34:17.407Z,14.87
2018-07-11T21:36:46.618Z,13.60
2018-07-11T21:39:15.707Z,15.53
2018-07-11T21:41:44.790Z,15.20
2018-07-11T21:44:14.008Z,13.67
2018-07-11T21:46:43.121Z,14.20
2018-07-11T21:49:17.035Z,16.00
2018-07-11T21:51:46.190Z,15.87
2018-07-11T21:54:15.416Z,16.03
2018-07-11T21:56:44.471Z,16.50
2018-07-11T21:59:13.601Z,17.47
2018-07-11T22:01:43.458Z,15.67
2018-07-11T22:04:12.538Z,17.10
2018-07-11T22:06:41.644Z,16.13
2018-07-11T22:09:10.799Z,15.67
2018-07-11T22:11:39.941Z,15.30
2018-07-11T22:14:09.041Z,15.77
2018-07-11T22:16:38.110Z,15.70
2018-07-11T22:19:07.324Z,14.70
2018-07-11T22:21:35.459Z,17.03
2018-07-11T22:24:03.499Z,14.70
2018-07-11T22:26:31.556Z,15.23
2018-07-11T22:28:59.606Z,16.13
2018-07-11T22:31:28.025Z,15.17
2018-07-11T22:33:55.975Z,17.30
2018-07-11T22:36:24.044Z,16.40
2018-07-11T22:38:52.177Z,16.43
2018-07-11T22:41:20.307Z,17.70
2018-07-11T22:43:48.363Z,17.23
2018-07-11T22:46:16.408Z,17.57
2018-07-11T22:48:44.485Z,18.07
2018-07-11T22:51:12.552Z,17.63
2018-07-11T22:53:40.629Z,19.37
2018-07-11T22:56:08.732Z,17.17
2018-07-11T22:58:36.775Z,16.53
2018-07-11T23:01:04.810Z,15.73
2018-07-11T23:03:32.879Z,17.70
2018-07-11T23:06:00.928Z,17.93
2018-07-11T23:08:29.049Z,18.00
2018-07-11T23:10:57.095Z,15.67
2018-07-11T23:13:25.143Z,17.30
2018-07-11T23:15:53.211Z,17.60
2018-07-11T23:18:21.270Z,17.67
2018-07-11T23:20:49.449Z,17.87
2018-07-11T23:23:17.523Z,17.30
2018-07-11T23:25:45.586Z,17.03
2018-07-11T23:28:13.637Z,14.90
2018-07-11T23:30:41.709Z,18.23
2018-07-11T23:33:09.751Z,17.03
2018-07-11T23:35:37.895Z,17.77
2018-07-11T23:38:05.964Z,16.87
2018-07-11T23:40:34.027Z,18.27
2018-07-11T23:43:02.079Z,18.33
2018-07-11T23:45:30.120Z,16.33
2018-07-11T23:47:58.172Z,17.30
2018-07-11T23:50:26.751Z,18.20
2018-07-11T23:52:54.795Z,16.03
2018-07-11T23:55:22.859Z,19.13
2018-07-11T23:57:50.932Z,17.13
